Time;durP1;ratioP1;P1;durP2;ratioP2;P2;SDS_P1;SDS_P2;PMS_P1;PMS_P2;Temp;Humidity;BMP_temperature;BMP_pressure;BME280_temperature;BME280_humidity;BME280_pressure;Samples;Min_cycle;Max_cycle;Signal;HPM_P1;HPM_P2
2023/07/14 00:00:31;;;;;;;4.77;2.63;;;14.70;99.90;;;;;;5014728;28;20224;-90
2023/07/14 00:02:58;;;;;;;4.93;2.60;;;14.70;99.90;;;;;;5015227;28;20621;-90
2023/07/14 00:05:29;;;;;;;6.23;2.90;;;14.70;99.90;;;;;;5014869;28;20272;-90
2023/07/14 00:07:55;;;;;;;3.03;2.33;;;14.70;99.90;;;;;;5016417;28;20199;-90
2023/07/14 00:10:33;;;;;;;6.33;2.30;;;14.70;99.90;;;;;;5018999;28;20213;-90
2023/07/14 00:13:03;;;;;;;5.50;2.80;;;14.60;99.90;;;;;;5014625;28;20169;-90
2023/07/14 00:15:33;;;;;;;4.87;2.33;;;14.60;99.90;;;;;;5015732;28;20183;-90
2023/07/14 00:18:16;;;;;;;3.03;2.23;;;14.60;99.90;;;;;;5015155;28;20200;-90
2023/07/14 00:20:41;;;;;;;3.90;2.73;;;14.70;99.90;;;;;;5014585;28;20203;-90
2023/07/14 00:23:12;;;;;;;3.03;2.33;;;14.60;99.90;;;;;;5013592;28;20181;-90
2023/07/14 00:25:39;;;;;;;5.00;2.50;;;14.60;99.90;;;;;;5014987;28;20657;-90
2023/07/14 00:28:13;;;;;;;5.57;2.37;;;14.60;99.90;;;;;;5014609;28;20184;-90
2023/07/14 00:30:39;;;;;;;6.17;2.83;;;14.50;99.90;;;;;;5014767;28;20589;-90
2023/07/14 00:33:13;;;;;;;3.40;2.80;;;14.60;99.90;;;;;;5014820;28;20283;-90
2023/07/14 00:35:39;;;;;;;2.97;2.50;;;14.60;99.90;;;;;;5015466;28;20173;-90
2023/07/14 00:38:05;;;;;;;7.70;2.60;;;14.60;99.90;;;;;;5015111;28;20646;-90
2023/07/14 00:40:48;;;;;;;4.60;2.67;;;14.50;99.90;;;;;;5014867;28;20283;-90
2023/07/14 00:43:19;;;;;;;4.30;2.50;;;14.40;99.90;;;;;;5015067;28;20180;-90
2023/07/14 00:45:49;;;;;;;6.20;2.67;;;15.90;99.90;;;;;;5016213;28;20184;-90
2023/07/14 00:48:18;;;;;;;6.97;3.10;;;14.50;99.90;;;;;;5014801;28;20185;-90
2023/07/14 00:50:51;;;;;;;5.00;2.70;;;15.10;99.90;;;;;;5014741;28;20244;-90
2023/07/14 00:53:36;;;;;;;3.40;2.20;;;14.30;99.90;;;;;;5015271;28;20188;-90
2023/07/14 00:56:08;;;;;;;3.60;2.17;;;14.50;99.90;;;;;;5015140;28;20173;-90
2023/07/14 00:58:34;;;;;;;4.90;2.43;;;14.50;99.90;;;;;;5016262;28;20247;-91
2023/07/14 01:01:05;;;;;;;2.73;2.37;;;14.70;99.90;;;;;;5015797;28;20224;-90
2023/07/14 01:03:32;;;;;;;3.57;2.40;;;14.40;99.90;;;;;;5014662;28;20259;-89
2023/07/14 01:06:02;;;;;;;4.73;2.53;;;14.30;99.90;;;;;;5015008;28;20646;-91
2023/07/14 01:08:29;;;;;;;5.50;1.90;;;13.90;99.90;;;;;;5014593;28;20185;-91
2023/07/14 01:10:55;;;;;;;3.90;1.93;;;14.60;99.90;;;;;;5014099;28;20209;-90
2023/07/14 01:13:23;;;;;;;4.43;2.53;;;14.30;99.90;;;;;;5015232;28;20242;-90
2023/07/14 01:15:50;;;;;;;4.03;2.30;;;14.30;99.90;;;;;;5015179;28;20172;-90
2023/07/14 01:18:16;;;;;;;7.33;2.23;;;14.30;99.90;;;;;;5013617;28;20183;-90
2023/07/14 01:20:41;;;;;;;9.27;2.13;;;14.20;99.90;;;;;;5013970;28;20201;-90
2023/07/14 01:23:39;;;;;;;3.17;2.43;;;14.20;99.90;;;;;;5013802;28;20184;-90
2023/07/14 01:26:30;;;;;;;5.60;2.50;;;14.20;99.90;;;;;;5014716;28;20188;-90
2023/07/14 01:28:55;;;;;;;4.20;2.30;;;14.20;99.90;;;;;;5014912;28;20196;-91
2023/07/14 01:31:23;;;;;;;4.07;2.23;;;14.20;99.90;;;;;;5026462;28;20169;-90
2023/07/14 01:33:52;;;;;;;3.67;2.50;;;14.20;99.90;;;;;;5036402;28;20185;-90
2023/07/14 01:36:19;;;;;;;3.73;2.33;;;14.20;99.90;;;;;;5028449;28;20180;-90
2023/07/14 01:38:45;;;;;;;2.67;2.40;;;14.40;99.90;;;;;;5021391;28;20181;-90
2023/07/14 01:41:11;;;;;;;5.53;2.23;;;14.10;99.90;;;;;;5019622;28;20208;-90
2023/07/14 01:43:38;;;;;;;6.17;2.70;;;14.10;99.90;;;;;;5018254;28;20173;-90
2023/07/14 01:46:07;;;;;;;5.63;2.33;;;14.70;99.90;;;;;;5018061;28;20184;-90
2023/07/14 01:49:01;;;;;;;7.10;2.50;;;14.10;99.90;;;;;;5019226;28;20169;-91
2023/07/14 01:51:31;;;;;;;3.00;2.23;;;14.10;99.90;;;;;;5017366;28;20557;-90
2023/07/14 01:54:06;;;;;;;2.83;2.40;;;14.00;99.90;;;;;;5017210;28;20537;-90
2023/07/14 01:56:34;;;;;;;3.77;2.40;;;14.00;99.90;;;;;;5022493;28;20157;-89
2023/07/14 01:59:17;;;;;;;3.67;2.00;;;14.00;99.90;;;;;;5018874;28;20180;-90
2023/07/14 02:01:44;;;;;;;2.80;1.97;;;14.00;99.90;;;;;;5017015;28;20184;-90
2023/07/14 02:04:22;;;;;;;9.73;2.50;;;14.60;99.90;;;;;;5017322;28;20173;-90
2023/07/14 02:06:48;;;;;;;5.70;2.33;;;14.00;99.90;;;;;;5017285;28;20639;-90
2023/07/14 02:09:19;;;;;;;5.23;2.27;;;14.00;99.90;;;;;;5016579;28;20303;-90
2023/07/14 02:11:50;;;;;;;4.37;1.90;;;14.00;99.90;;;;;;5016775;28;20175;-90
2023/07/14 02:14:19;;;;;;;4.57;2.30;;;13.90;99.90;;;;;;5016857;28;20244;-90
2023/07/14 02:16:49;;;;;;;3.37;2.50;;;13.90;99.90;;;;;;5018640;28;20653;-90
2023/07/14 02:19:23;;;;;;;3.90;2.30;;;14.00;99.90;;;;;;5018378;28;20199;-90
2023/07/14 02:21:50;;;;;;;5.90;2.40;;;13.90;99.90;;;;;;5018021;28;20177;-90
2023/07/14 02:24:22;;;;;;;2.83;2.50;;;13.90;99.90;;;;;;5017089;28;20230;-90
2023/07/14 02:26:55;;;;;;;2.77;2.23;;;13.90;99.90;;;;;;5018220;28;20188;-90
2023/07/14 02:29:21;;;;;;;3.50;2.30;;;14.70;99.90;;;;;;5016888;28;20219;-90
2023/07/14 02:32:03;;;;;;;7.60;2.53;;;13.80;99.90;;;;;;5017116;28;20169;-90
2023/07/14 02:34:33;;;;;;;5.07;2.40;;;13.80;99.90;;;;;;5017149;28;20169;-90
2023/07/14 02:37:04;;;;;;;3.63;2.33;;;13.80;99.90;;;;;;5017226;28;20173;-90
2023/07/14 02:39:39;;;;;;;3.13;2.40;;;13.70;99.90;;;;;;5017549;28;20204;-90
2023/07/14 02:42:05;;;;;;;3.27;1.90;;;13.70;99.90;;;;;;5017467;28;20180;-90
2023/07/14 02:44:37;;;;;;;4.60;2.30;;;13.70;99.90;;;;;;5018181;28;20204;-90
2023/07/14 02:47:22;;;;;;;6.77;2.67;;;13.60;99.90;;;;;;5016420;28;20219;-90
2023/07/14 02:49:48;;;;;;;2.77;1.93;;;13.70;99.90;;;;;;5017057;28;20205;-90
2023/07/14 02:52:15;;;;;;;3.63;2.07;;;13.60;99.90;;;;;;5017150;28;20558;-90
2023/07/14 02:54:44;;;;;;;5.17;2.40;;;13.60;99.90;;;;;;5016949;28;20181;-90
2023/07/14 02:57:10;;;;;;;2.57;2.37;;;13.60;99.90;;;;;;5017103;28;20173;-90
2023/07/14 02:59:36;;;;;;;4.80;2.43;;;13.60;99.90;;;;;;5016841;28;20275;-90
2023/07/14 03:02:02;;;;;;;5.30;2.30;;;13.60;99.90;;;;;;5016803;28;20218;-90
2023/07/14 03:04:28;;;;;;;3.50;2.30;;;13.60;99.90;;;;;;5018068;28;20204;-90
2023/07/14 03:06:53;;;;;;;3.13;2.17;;;13.80;99.90;;;;;;5018294;28;20647;-90
2023/07/14 03:09:19;;;;;;;3.47;2.43;;;13.60;99.90;;;;;;5017048;28;20586;-90
2023/07/14 03:11:44;;;;;;;4.37;2.40;;;13.80;99.90;;;;;;5022182;28;20191;-90
2023/07/14 03:14:10;;;;;;;2.60;2.30;;;13.60;99.90;;;;;;5035388;28;20223;-90
2023/07/14 03:16:36;;;;;;;3.40;2.53;;;13.60;99.90;;;;;;5032621;28;20242;-90
2023/07/14 03:19:02;;;;;;;2.77;2.10;;;13.60;99.90;;;;;;5028542;28;20588;-90
2023/07/14 03:21:28;;;;;;;4.97;2.77;;;14.30;99.90;;;;;;5031894;28;20200;-90
2023/07/14 03:23:58;;;;;;;2.83;2.00;;;13.70;99.90;;;;;;5017133;28;20192;-90
2023/07/14 03:26:24;;;;;;;6.53;3.20;;;12.70;99.90;;;;;;5017313;28;20696;-90
2023/07/14 03:28:49;;;;;;;7.03;2.83;;;13.50;99.90;;;;;;5020010;28;20249;-90
2023/07/14 03:31:15;;;;;;;3.83;2.47;;;13.50;99.90;;;;;;5018249;28;20224;-90
2023/07/14 03:33:41;;;;;;;2.77;2.20;;;13.50;99.90;;;;;;5017839;28;20173;-90
2023/07/14 03:36:12;;;;;;;5.20;2.53;;;13.50;99.90;;;;;;5017395;28;20173;-90
2023/07/14 03:38:41;;;;;;;4.33;2.60;;;13.50;99.90;;;;;;5017388;28;20150;-91
2023/07/14 03:41:06;;;;;;;5.03;2.60;;;13.30;99.90;;;;;;5016068;28;20197;-90
2023/07/14 03:43:32;;;;;;;5.13;2.07;;;13.50;99.90;;;;;;5017946;28;20176;-90
2023/07/14 03:45:57;;;;;;;3.13;2.47;;;13.70;99.90;;;;;;5019455;28;20694;-90
2023/07/14 03:48:23;;;;;;;5.03;2.30;;;13.70;99.90;;;;;;5028599;28;20239;-90
2023/07/14 03:50:49;;;;;;;2.90;2.30;;;13.50;99.90;;;;;;5024154;28;20236;-90
2023/07/14 03:53:14;;;;;;;5.47;2.57;;;13.60;99.90;;;;;;5019024;28;20188;-90
2023/07/14 03:55:40;;;;;;;8.73;2.50;;;13.60;99.90;;;;;;5016769;28;20186;-90
2023/07/14 03:58:06;;;;;;;2.40;2.00;;;13.60;99.90;;;;;;5016251;28;20551;-90
2023/07/14 04:00:32;;;;;;;7.53;2.70;;;13.60;99.90;;;;;;5015861;28;20289;-90
2023/07/14 04:02:58;;;;;;;4.13;2.30;;;14.80;99.90;;;;;;5017496;28;20271;-90
2023/07/14 04:05:25;;;;;;;2.47;2.27;;;13.40;99.90;;;;;;5016825;28;20256;-90
2023/07/14 04:07:51;;;;;;;2.47;1.97;;;13.70;99.90;;;;;;5017259;28;20180;-90
2023/07/14 04:10:17;;;;;;;2.50;2.20;;;14.50;99.90;;;;;;5015310;28;20212;-90
2023/07/14 04:12:45;;;;;;;5.10;2.37;;;13.70;99.90;;;;;;5015488;28;20212;-90
2023/07/14 04:15:11;;;;;;;5.47;2.50;;;14.60;99.90;;;;;;5015782;28;20172;-90
2023/07/14 04:17:37;;;;;;;3.87;2.63;;;13.80;99.90;;;;;;5015069;28;20205;-90
2023/07/14 04:20:05;;;;;;;8.20;2.67;;;14.10;99.90;;;;;;5014935;28;20239;-90
2023/07/14 04:22:30;;;;;;;4.13;2.67;;;13.80;99.90;;;;;;5015988;28;20173;-90
2023/07/14 04:24:58;;;;;;;7.07;2.40;;;13.80;99.90;;;;;;5016090;28;20199;-90
2023/07/14 04:27:24;;;;;;;9.07;2.70;;;14.00;99.90;;;;;;5015164;28;20555;-90
2023/07/14 04:29:49;;;;;;;5.13;3.23;;;13.80;99.90;;;;;;5015845;28;20201;-90
2023/07/14 04:32:15;;;;;;;6.30;2.70;;;13.80;99.90;;;;;;5015256;28;20196;-90
2023/07/14 04:34:40;;;;;;;3.40;2.40;;;13.90;99.90;;;;;;5014726;28;20173;-90
2023/07/14 04:37:07;;;;;;;7.60;2.67;;;14.00;99.90;;;;;;5014524;28;20223;-90
2023/07/14 04:39:32;;;;;;;7.23;2.90;;;13.90;99.90;;;;;;5014978;28;20555;-90
2023/07/14 04:41:58;;;;;;;5.27;2.43;;;14.20;99.90;;;;;;5014569;28;20231;-90
2023/07/14 04:44:24;;;;;;;6.43;2.20;;;14.10;99.90;;;;;;5014527;28;20207;-89
2023/07/14 04:46:49;;;;;;;5.20;2.60;;;14.20;99.90;;;;;;5014911;28;20200;-90
2023/07/14 04:49:15;;;;;;;3.63;2.20;;;14.50;99.90;;;;;;5014438;28;20563;-90
2023/07/14 04:51:41;;;;;;;7.20;2.30;;;14.20;99.90;;;;;;5014594;28;20188;-90
2023/07/14 04:54:07;;;;;;;7.63;2.60;;;14.20;99.90;;;;;;5014701;28;20176;-90
2023/07/14 04:56:34;;;;;;;7.13;2.33;;;14.20;99.90;;;;;;5014282;28;20188;-91
2023/07/14 04:59:00;;;;;;;5.17;2.33;;;14.70;99.90;;;;;;5015343;28;20244;-90
2023/07/14 05:01:28;;;;;;;2.77;2.57;;;14.30;99.90;;;;;;5014792;28;20563;-90
2023/07/14 05:03:54;;;;;;;3.70;2.30;;;14.30;99.90;;;;;;5015267;28;20640;-90
2023/07/14 05:06:20;;;;;;;5.33;2.83;;;14.50;99.90;;;;;;5014494;28;20188;-90
2023/07/14 05:08:45;;;;;;;4.97;2.50;;;14.40;99.90;;;;;;5014703;28;20179;-90
2023/07/14 05:11:11;;;;;;;3.87;2.57;;;14.50;99.90;;;;;;5018242;28;20652;-90
2023/07/14 05:13:37;;;;;;;3.37;2.37;;;14.50;99.90;;;;;;5019426;28;20184;-90
2023/07/14 05:16:02;;;;;;;9.90;2.60;;;14.60;99.90;;;;;;5018086;28;20212;-91
2023/07/14 05:18:28;;;;;;;2.50;2.20;;;14.60;99.90;;;;;;5017779;28;20238;-90
2023/07/14 05:21:04;;;;;;;8.67;2.90;;;14.60;99.90;;;;;;5017788;28;20710;-90
2023/07/14 05:23:31;;;;;;;3.83;2.87;;;14.70;99.90;;;;;;5018458;28;20258;-90
2023/07/14 05:25:57;;;;;;;3.53;2.47;;;15.20;99.90;;;;;;5018372;28;20733;-90
2023/07/14 05:28:23;;;;;;;5.63;3.07;;;15.50;99.90;;;;;;5018477;28;20188;-90
2023/07/14 05:30:51;;;;;;;5.73;2.90;;;15.00;99.90;;;;;;5018400;28;20212;-90
2023/07/14 05:33:17;;;;;;;4.37;3.13;;;14.90;99.90;;;;;;5018216;28;20227;-90
2023/07/14 05:35:43;;;;;;;5.70;3.13;;;15.00;99.90;;;;;;5017992;28;20264;-90
2023/07/14 05:38:09;;;;;;;9.70;3.70;;;14.90;99.90;;;;;;5018664;28;20243;-91
2023/07/14 05:40:34;;;;;;;3.83;2.90;;;15.30;99.90;;;;;;5018468;28;20204;-90
2023/07/14 05:43:00;;;;;;;6.67;3.10;;;14.90;99.90;;;;;;5018536;28;20208;-90
2023/07/14 05:45:26;;;;;;;5.77;3.60;;;15.00;99.90;;;;;;5019343;28;20185;-90
2023/07/14 05:47:51;;;;;;;5.90;2.90;;;15.10;99.90;;;;;;5018359;28;20256;-90
2023/07/14 05:50:17;;;;;;;4.00;3.23;;;15.10;99.90;;;;;;5018082;28;20209;-91
2023/07/14 05:52:44;;;;;;;5.13;3.10;;;15.10;99.90;;;;;;5017716;28;20230;-90
2023/07/14 05:55:11;;;;;;;4.03;3.13;;;16.00;99.90;;;;;;5017600;28;20197;-90
2023/07/14 05:57:36;;;;;;;6.27;2.80;;;15.10;99.90;;;;;;5017703;28;20576;-90
2023/07/14 06:00:13;;;;;;;5.73;2.80;;;15.00;99.90;;;;;;5023223;28;20227;-90
2023/07/14 06:02:50;;;;;;;9.90;3.27;;;15.20;99.90;;;;;;5026758;28;20211;-91
2023/07/14 06:05:17;;;;;;;3.67;3.10;;;16.00;99.90;;;;;;5021145;28;20208;-90
2023/07/14 06:07:42;;;;;;;10.83;3.63;;;15.20;99.90;;;;;;5019362;28;20172;-90
2023/07/14 06:10:09;;;;;;;12.57;3.97;;;16.10;99.90;;;;;;5018310;28;20208;-91
2023/07/14 06:12:35;;;;;;;4.83;3.23;;;15.40;99.90;;;;;;5018584;28;20177;-90
2023/07/14 06:15:01;;;;;;;6.40;3.43;;;15.70;99.90;;;;;;5018022;28;20177;-90
2023/07/14 06:17:26;;;;;;;5.53;3.27;;;15.40;99.90;;;;;;5019253;28;20518;-90
2023/07/14 06:19:52;;;;;;;6.10;3.33;;;15.50;99.90;;;;;;5017181;28;20207;-91
2023/07/14 06:22:20;;;;;;;9.53;3.57;;;15.60;99.90;;;;;;5018379;28;20180;-90
2023/07/14 06:24:46;;;;;;;7.17;3.20;;;15.70;99.90;;;;;;5018679;28;20235;-91
2023/07/14 06:27:11;;;;;;;6.13;3.50;;;16.00;99.90;;;;;;5017446;28;20185;-90
2023/07/14 06:29:37;;;;;;;6.47;3.73;;;15.90;99.90;;;;;;5017219;28;20212;-90
2023/07/14 06:32:03;;;;;;;9.87;3.30;;;15.80;99.90;;;;;;5017298;28;20188;-90
2023/07/14 06:34:29;;;;;;;8.00;3.30;;;15.90;99.90;;;;;;5016659;28;20264;-90
2023/07/14 06:36:54;;;;;;;6.83;3.53;;;16.00;99.90;;;;;;5016821;28;20223;-90
2023/07/14 06:39:20;;;;;;;5.27;2.97;;;16.00;99.90;;;;;;5016376;28;20208;-90
2023/07/14 06:41:47;;;;;;;7.33;3.47;;;16.10;99.90;;;;;;5017368;28;20250;-90
2023/07/14 06:44:13;;;;;;;5.33;3.10;;;16.50;99.90;;;;;;5016710;28;20264;-90
2023/07/14 06:46:39;;;;;;;8.50;3.43;;;16.30;99.90;;;;;;5016892;28;20262;-90
2023/07/14 06:49:04;;;;;;;6.30;3.43;;;16.30;99.90;;;;;;5017652;28;20172;-90
2023/07/14 06:51:30;;;;;;;10.13;3.60;;;16.60;99.90;;;;;;5016449;28;20661;-91
2023/07/14 06:53:56;;;;;;;6.53;3.10;;;16.60;99.90;;;;;;5017360;28;20579;-90
2023/07/14 06:56:22;;;;;;;5.73;3.17;;;16.50;99.90;;;;;;5015885;28;20181;-91
2023/07/14 06:58:47;;;;;;;5.70;3.20;;;16.60;99.90;;;;;;5017795;28;20181;-90
2023/07/14 07:01:15;;;;;;;5.97;3.30;;;16.60;99.90;;;;;;5016264;28;20311;-91
2023/07/14 07:03:41;;;;;;;6.13;3.17;;;16.80;99.90;;;;;;5016034;28;20188;-90
2023/07/14 07:06:06;;;;;;;7.67;3.17;;;16.70;99.90;;;;;;5015545;28;20177;-90
2023/07/14 07:08:32;;;;;;;6.00;3.27;;;16.80;99.90;;;;;;5015896;28;20177;-90
2023/07/14 07:10:58;;;;;;;7.17;2.93;;;16.90;99.90;;;;;;5015679;28;20302;-90
2023/07/14 07:13:23;;;;;;;7.93;3.40;;;17.00;99.90;;;;;;5015894;28;20691;-90
2023/07/14 07:15:49;;;;;;;7.03;3.27;;;17.10;99.90;;;;;;5015773;28;20272;-90
2023/07/14 07:18:24;;;;;;;9.17;3.97;;;17.10;99.90;;;;;;5018795;28;20181;-90
2023/07/14 07:20:50;;;;;;;6.13;2.97;;;18.40;99.90;;;;;;5017238;28;20693;-91
2023/07/14 07:23:16;;;;;;;6.17;2.80;;;17.30;92.00;;;;;;5015597;28;20185;-90
2023/07/14 07:25:47;;;;;;;5.97;3.00;;;17.30;81.30;;;;;;5014519;28;20635;-91
2023/07/14 07:28:12;;;;;;;7.03;3.17;;;18.40;68.60;;;;;;5014909;28;20264;-90
2023/07/14 07:30:38;;;;;;;5.13;2.87;;;18.20;62.20;;;;;;5015826;28;20216;-90
2023/07/14 07:33:04;;;;;;;3.83;2.33;;;17.60;64.60;;;;;;5013784;28;20179;-90
2023/07/14 07:35:29;;;;;;;7.60;2.93;;;17.60;63.10;;;;;;5015990;28;20184;-90
2023/07/14 07:37:55;;;;;;;7.20;3.03;;;17.70;70.70;;;;;;5014118;28;20184;-90
2023/07/14 07:40:20;;;;;;;6.53;3.17;;;17.90;44.70;;;;;;5014456;28;20200;-90
2023/07/14 07:42:46;;;;;;;7.07;2.80;;;17.80;46.10;;;;;;5014933;28;20188;-91
2023/07/14 07:45:12;;;;;;;8.07;3.10;;;17.70;40.40;;;;;;5014024;28;20579;-90
2023/07/14 07:47:37;;;;;;;5.33;2.77;;;17.90;37.80;;;;;;5014092;28;20208;-91
2023/07/14 07:50:03;;;;;;;10.57;3.10;;;17.90;30.00;;;;;;5013639;28;20224;-91
2023/07/14 07:52:31;;;;;;;4.87;2.70;;;18.00;20.00;;;;;;5014290;28;20619;-90
2023/07/14 07:54:57;;;;;;;6.23;2.90;;;19.30;12.80;;;;;;5014476;28;20177;-91
2023/07/14 07:57:23;;;;;;;6.83;2.33;;;18.30;17.90;;;;;;5014778;28;20693;-90
2023/07/14 07:59:49;;;;;;;6.33;2.63;;;19.80;14.60;;;;;;5013547;28;20248;-90
2023/07/14 08:02:14;;;;;;;9.03;2.80;;;18.40;1.00;;;;;;5013799;28;20177;-91
2023/07/14 08:04:40;;;;;;;6.57;2.63;;;18.50;1.00;;;;;;5013158;28;20173;-91
2023/07/14 08:07:12;;;;;;;6.60;2.80;;;18.70;1.00;;;;;;5013846;28;20180;-91
2023/07/14 08:09:38;;;;;;;6.93;2.60;;;18.80;1.00;;;;;;5013665;28;20209;-90
2023/07/14 08:12:04;;;;;;;5.33;2.50;;;18.90;1.00;;;;;;5013222;28;20639;-90
2023/07/14 08:14:31;;;;;;;7.53;2.70;;;19.00;1.00;;;;;;5024332;28;20194;-91
2023/07/14 08:16:57;;;;;;;7.37;2.40;;;19.10;1.00;;;;;;5037916;28;20172;-90
2023/07/14 08:19:22;;;;;;;6.67;2.37;;;19.20;1.00;;;;;;5029343;28;20201;-91
2023/07/14 08:21:48;;;;;;;5.43;2.37;;;19.30;1.00;;;;;;5015980;28;20632;-91
2023/07/14 08:24:13;;;;;;;6.47;2.30;;;19.80;1.00;;;;;;5014162;28;20621;-91
2023/07/14 08:26:39;;;;;;;9.07;2.83;;;19.50;1.00;;;;;;5013387;28;20258;-90
2023/07/14 08:29:05;;;;;;;8.17;2.47;;;19.50;1.00;;;;;;5014075;28;20288;-91
2023/07/14 08:31:31;;;;;;;4.97;2.30;;;19.60;1.00;;;;;;5015295;28;20259;-91
2023/07/14 08:33:57;;;;;;;5.17;2.37;;;19.70;1.00;;;;;;5012922;28;20228;-91
2023/07/14 08:36:23;;;;;;;5.77;2.40;;;20.50;1.00;;;;;;5014460;28;20177;-91
2023/07/14 08:38:50;;;;;;;4.00;2.10;;;20.20;1.00;;;;;;5014128;28;20199;-91
2023/07/14 08:41:33;;;;;;;7.70;2.27;;;20.00;1.00;;;;;;5014854;28;20192;-91
2023/07/14 08:44:19;;;;;;;5.30;2.20;;;20.10;99.90;;;;;;5012721;28;20539;-91
2023/07/14 08:47:10;;;;;;;4.60;1.90;;;20.30;99.90;;;;;;5013476;28;20208;-92
2023/07/14 08:49:51;;;;;;;5.37;1.83;;;20.30;99.90;;;;;;5012993;28;20205;-91
2023/07/14 08:52:30;;;;;;;5.03;2.20;;;20.40;99.90;;;;;;5013120;28;20622;-92
2023/07/14 08:55:05;;;;;;;3.63;2.13;;;20.60;99.90;;;;;;5013176;28;20207;-91
2023/07/14 08:57:41;;;;;;;6.63;2.23;;;20.70;99.90;;;;;;5014577;28;20200;-91
2023/07/14 09:00:12;;;;;;;6.87;2.10;;;20.80;99.90;;;;;;5012584;28;20224;-91
2023/07/14 09:03:00;;;;;;;2.50;1.80;;;20.80;99.90;;;;;;5013277;28;20184;-91
2023/07/14 09:05:27;;;;;;;6.57;2.10;;;20.70;99.90;;;;;;5015441;28;20169;-91
2023/07/14 09:07:54;;;;;;;2.60;1.67;;;20.90;99.90;;;;;;5013105;28;20177;-91
2023/07/14 09:10:31;;;;;;;6.80;2.00;;;20.90;99.90;;;;;;5013361;28;20204;-91
2023/07/14 09:13:23;;;;;;;6.37;2.20;;;21.00;99.90;;;;;;5012353;28;20538;-91
2023/07/14 09:15:49;;;;;;;3.77;2.20;;;21.30;1.00;;;;;;5012980;28;20658;-91
2023/07/14 09:18:56;;;;;;;5.87;1.80;;;21.40;1.00;;;;;;5012316;28;20181;-90
2023/07/14 09:21:31;;;;;;;3.03;1.90;;;21.50;13.20;;;;;;5006161;28;20188;-90
2023/07/14 09:24:13;;;;;;;3.50;1.87;;;21.70;41.50;;;;;;5013034;28;20172;-89
2023/07/14 09:26:46;;;;;;;3.20;1.80;;;21.50;1.00;;;;;;5012731;28;20601;-90
2023/07/14 09:29:16;;;;;;;3.80;1.70;;;21.70;1.00;;;;;;5013504;28;20173;-91
2023/07/14 09:31:56;;;;;;;2.67;2.00;;;21.70;1.00;;;;;;5013105;28;20181;-90
2023/07/14 09:34:38;;;;;;;6.23;1.87;;;21.80;24.20;;;;;;5013016;28;20282;-91
2023/07/14 09:37:17;;;;;;;9.50;2.13;;;21.90;99.90;;;;;;5014008;28;20619;-90
2023/07/14 09:39:45;;;;;;;3.97;1.70;;;21.80;99.90;;;;;;5012860;28;20208;-91
2023/07/14 09:42:23;;;;;;;3.67;1.47;;;22.00;1.00;;;;;;5012938;28;20533;-90
2023/07/14 09:44:49;;;;;;;4.57;1.93;;;22.10;9.20;;;;;;5012827;28;20212;-90
2023/07/14 09:47:18;;;;;;;2.90;1.73;;;22.20;1.00;;;;;;5014226;28;20200;-91
2023/07/14 09:49:48;;;;;;;4.73;2.50;;;22.40;1.00;;;;;;5012572;28;20628;-90
2023/07/14 09:52:20;;;;;;;4.63;1.87;;;22.40;1.00;;;;;;5012874;28;20180;-90
2023/07/14 09:54:59;;;;;;;5.70;2.10;;;22.60;27.50;;;;;;5012902;28;20266;-90
2023/07/14 09:57:34;;;;;;;7.50;2.30;;;22.70;58.10;;;;;;5016426;28;20269;-90
2023/07/14 10:00:14;;;;;;;5.30;1.60;;;22.80;52.50;;;;;;5015766;28;20215;-90
2023/07/14 10:02:40;;;;;;;4.00;1.90;;;22.80;32.60;;;;;;5016517;28;20188;-90
2023/07/14 10:05:41;;;;;;;20.17;2.30;;;22.90;1.00;;;;;;5017710;28;20200;-90
2023/07/14 10:08:26;;;;;;;5.00;1.90;;;23.20;1.00;;;;;;4956963;29;20202;-90
2023/07/14 10:10:55;;;;;;;4.70;2.07;;;23.10;1.00;;;;;;5010748;28;20320;-90
2023/07/14 10:13:26;;;;;;;7.90;2.33;;;23.20;1.00;;;;;;5016989;28;20658;-91
2023/07/14 10:16:14;;;;;;;4.97;2.17;;;23.30;1.00;;;;;;5017282;28;20174;-90
2023/07/14 10:18:57;;;;;;;3.27;1.77;;;23.40;1.00;;;;;;5015988;28;20165;-90
2023/07/14 10:21:34;;;;;;;5.40;2.20;;;23.50;1.00;;;;;;5016693;28;20177;-91
2023/07/14 10:24:05;;;;;;;7.20;2.47;;;23.80;1.00;;;;;;5015431;28;20208;-90
2023/07/14 10:26:36;;;;;;;4.10;1.77;;;23.70;99.90;;;;;;5016218;28;20173;-90
2023/07/14 10:29:13;;;;;;;3.40;1.80;;;23.90;1.00;;;;;;5015679;28;20701;-90
2023/07/14 10:31:54;;;;;;;4.60;2.03;;;23.80;1.00;;;;;;5016354;28;20173;-90
2023/07/14 10:34:26;;;;;;;4.30;2.40;;;23.80;99.90;;;;;;5019842;28;20169;-90
2023/07/14 10:36:58;;;;;;;3.73;1.70;;;23.80;1.00;;;;;;5016556;28;20272;-90
2023/07/14 10:39:36;;;;;;;6.83;2.30;;;23.90;1.00;;;;;;5017831;28;20212;-91
2023/07/14 10:42:05;;;;;;;5.70;2.10;;;23.90;1.00;;;;;;5016932;28;20240;-90
2023/07/14 10:44:36;;;;;;;5.33;2.17;;;23.90;1.00;;;;;;5017346;28;20188;-90
2023/07/14 10:47:17;;;;;;;4.27;2.23;;;23.90;1.00;;;;;;5017237;28;20173;-90
2023/07/14 10:49:49;;;;;;;5.80;2.07;;;23.90;1.00;;;;;;5017897;28;20208;-90
2023/07/14 10:52:20;;;;;;;4.40;2.10;;;24.00;1.00;;;;;;5018943;28;20620;-91
2023/07/14 10:55:12;;;;;;;2.83;2.00;;;24.20;1.00;;;;;;5019034;28;20243;-90
2023/07/14 10:57:43;;;;;;;6.30;2.40;;;24.10;1.00;;;;;;5017771;28;20169;-90
2023/07/14 11:00:21;;;;;;;6.83;2.20;;;24.10;99.90;;;;;;5016581;28;20710;-90
2023/07/14 11:03:03;;;;;;;4.37;2.27;;;24.10;99.90;;;;;;5017620;28;20225;-90
2023/07/14 11:05:31;;;;;;;3.07;2.10;;;24.20;1.00;;;;;;5017316;28;20268;-90
2023/07/14 11:07:56;;;;;;;4.73;2.63;;;24.20;1.00;;;;;;5015839;28;20654;-90
2023/07/14 11:10:42;;;;;;;5.30;2.30;;;24.10;99.90;;;;;;5018483;28;20197;-90
2023/07/14 11:13:22;;;;;;;6.37;2.03;;;24.00;99.90;;;;;;5017011;28;20176;-91
2023/07/14 11:15:55;;;;;;;3.27;2.20;;;24.10;99.90;;;;;;5018167;28;20165;-90
2023/07/14 11:18:32;;;;;;;5.73;2.20;;;24.10;1.00;;;;;;5017494;28;20197;-90
2023/07/14 11:21:27;;;;;;;5.30;2.23;;;24.20;1.00;;;;;;5016474;28;20200;-90
2023/07/14 11:24:06;;;;;;;5.13;2.63;;;24.20;99.90;;;;;;5016440;28;20181;-90
2023/07/14 11:27:00;;;;;;;5.20;2.10;;;24.20;99.90;;;;;;5016699;28;20623;-90
2023/07/14 11:29:30;;;;;;;4.97;2.20;;;24.30;99.90;;;;;;5006019;28;20271;-90
2023/07/14 11:31:59;;;;;;;4.93;2.30;;;24.20;99.90;;;;;;5017142;28;20598;-90
2023/07/14 11:34:40;;;;;;;5.50;2.60;;;24.30;1.00;;;;;;5016498;28;20179;-90
2023/07/14 11:37:45;;;;;;;3.73;2.13;;;24.30;99.90;;;;;;5015793;28;20725;-90
2023/07/14 11:40:20;;;;;;;5.63;2.40;;;24.30;99.90;;;;;;5017042;28;20208;-90
2023/07/14 11:42:59;;;;;;;4.87;2.23;;;24.30;99.90;;;;;;5016656;28;20196;-90
2023/07/14 11:45:28;;;;;;;3.60;2.50;;;24.30;99.90;;;;;;5016606;28;20628;-90
2023/07/14 11:47:57;;;;;;;8.17;2.97;;;24.40;99.90;;;;;;5017157;28;20208;-90
2023/07/14 11:50:29;;;;;;;6.87;2.60;;;24.50;99.90;;;;;;5016812;28;20251;-90
2023/07/14 11:52:59;;;;;;;5.23;1.90;;;24.50;99.90;;;;;;5017559;28;20627;-90
2023/07/14 11:55:27;;;;;;;4.47;2.40;;;24.40;99.90;;;;;;5015508;28;20179;-91
2023/07/14 11:58:20;;;;;;;7.83;2.10;;;24.60;1.00;;;;;;5015501;28;20181;-90
2023/07/14 12:00:52;;;;;;;3.67;2.17;;;24.70;1.00;;;;;;5017346;28;20212;-90
2023/07/14 12:03:29;;;;;;;4.93;2.30;;;25.00;99.90;;;;;;5015589;28;20173;-90
2023/07/14 12:06:21;;;;;;;3.83;2.22;;;24.80;99.90;;;;;;5016282;28;20604;-90
2023/07/14 12:09:04;;;;;;;5.37;2.50;;;25.10;1.00;;;;;;5015773;28;20544;-90
2023/07/14 12:11:56;;;;;;;3.92;2.10;;;25.10;99.90;;;;;;5016789;28;20271;-90
2023/07/14 12:14:45;;;;;;;4.72;1.98;;;25.10;99.90;;;;;;5017522;28;20157;-91
2023/07/14 12:17:41;;;;;;;8.00;3.00;;;25.30;1.00;;;;;;5016315;28;20620;-90
2023/07/14 12:20:13;;;;;;;4.47;2.08;;;25.50;1.00;;;;;;5016076;28;20235;-91
2023/07/14 12:22:46;;;;;;;6.18;2.33;;;25.60;1.00;;;;;;5016415;28;20181;-90
2023/07/14 12:25:12;;;;;;;4.32;2.03;;;25.70;22.50;;;;;;5015958;28;20168;-90
2023/07/14 12:27:40;;;;;;;7.57;2.65;;;25.90;1.00;;;;;;5015844;28;20528;-90
2023/07/14 12:30:23;;;;;;;7.10;2.53;;;25.90;35.60;;;;;;5015753;28;20519;-91
2023/07/14 12:32:56;;;;;;;5.82;2.20;;;25.90;1.00;;;;;;5016147;28;20549;-91
2023/07/14 12:35:25;;;;;;;6.25;2.40;;;26.00;1.00;;;;;;5015517;28;20627;-91
2023/07/14 12:37:50;;;;;;;5.82;2.00;;;25.90;30.40;;;;;;5015683;28;20204;-91
2023/07/14 12:40:25;;;;;;;8.43;2.15;;;26.20;99.90;;;;;;5016120;28;20275;-90
2023/07/14 12:42:52;;;;;;;3.08;1.95;;;26.10;8.20;;;;;;5016389;28;20180;-91
2023/07/14 12:45:20;;;;;;;5.32;2.15;;;26.10;99.90;;;;;;5016963;28;20219;-90
2023/07/14 12:47:48;;;;;;;5.43;2.28;;;26.10;1.00;;;;;;5027524;28;20181;-90
2023/07/14 12:50:24;;;;;;;5.57;2.33;;;26.10;99.90;;;;;;5030338;28;20215;-91
2023/07/14 12:52:50;;;;;;;5.88;2.05;;;26.10;1.00;;;;;;5017053;28;20723;-91
2023/07/14 12:55:19;;;;;;;4.35;1.90;;;26.00;99.90;;;;;;5015476;28;20204;-91
2023/07/14 12:57:47;;;;;;;5.07;2.30;;;26.00;1.00;;;;;;5015840;28;20223;-91
2023/07/14 13:00:21;;;;;;;3.65;2.22;;;26.10;1.00;;;;;;5014932;28;20243;-90
2023/07/14 13:02:50;;;;;;;2.67;2.05;;;26.30;1.00;;;;;;5015206;28;20184;-90
2023/07/14 13:05:17;;;;;;;2.42;1.85;;;26.50;1.00;;;;;;5015140;28;20666;-90